Platitera Tonouranon — SX7180 — position and weather

sailwx.info

Track history (hours):
 
Tides and Currents Weather Stations Pressure Air Temp Water Temp Dewpoint Dewpoint Depression Visibility Wind Speed Wind Dir Waves Ship Positions

Platitera Tonouranon

Last reported at 2015-Jul-05 06:33 UTC. Time now 2015-Jul-05 09:33 UTC.
Position N 37°43' E 023°35'.

Length 55 m; draft 3.8 m.

Type: Ship (hazmat cat A). MMSI: 237038200.

Date/timePositionNaut miles runAvg speedWind from/ knotsBaromVisibWave heightAir tempDewpointWater temp
2015-Jul-05 06:33N 37°43' E 023°35'1211.9
2015-Jul-05 05:34N 37°54' E 023°40'2 2.1
2015-Jul-05 04:33N 37°56' E 023°41'0 0.0
2015-Jul-04 17:15N 37°56' E 023°41'6 8.1
2015-Jul-04 16:33N 37°53' E 023°35'1111.4
2015-Jul-04 15:33N 37°45' E 023°25'0 0.2
2015-Jul-04 13:21N 37°45' E 023°26'1111.2
2015-Jul-04 12:22N 37°34' E 023°25'12 3.9
2015-Jul-04 09:12N 37°22' E 023°29'15 7.5
2015-Jul-04 07:10N 37°36' E 023°36'712.3
2015-Jul-04 06:34N 37°43' E 023°36'1211.6
2015-Jul-04 05:34N 37°54' E 023°39'2 2.3
2015-Jul-04 04:33N 37°56' E 023°41'0 0.0
2015-Jul-03 19:33N 37°56' E 023°41'0 0.5
2015-Jul-03 18:33N 37°56' E 023°41'1 1.0
2015-Jul-03 17:33N 37°55' E 023°40'1 1.2
2015-Jul-03 16:33N 37°56' E 023°41'2 1.7
2015-Jul-03 15:33N 37°55' E 023°39'1110.9
2015-Jul-03 14:33N 37°49' E 023°28'5 2.1
2015-Jul-03 12:19N 37°45' E 023°25'911.8
2015-Jul-03 11:33N 37°36' E 023°26'7 5.2
2015-Jul-03 10:18N 37°29' E 023°29'12 3.2
2015-Jul-03 06:32N 37°40' E 023°35'1211.8
2015-Jul-03 05:33N 37°52' E 023°38'5 5.2
2015-Jul-03 04:33N 37°56' E 023°41'0 0.0
2015-Jul-02 17:18N 37°56' E 023°41'6 7.8
2015-Jul-02 16:33N 37°53' E 023°35'1111.3
2015-Jul-02 15:33N 37°45' E 023°25'1 0.3
2015-Jul-02 13:12N 37°45' E 023°26'811.7
2015-Jul-02 12:29N 37°36' E 023°26'11 1.8
2015-Jul-02 06:30N 37°45' E 023°34'1111.9
2015-Jul-02 05:33N 37°55' E 023°40'1 1.4
2015-Jul-02 04:33N 37°56' E 023°41'0 0.0
2015-Jul-01 17:24N 37°56' E 023°41'6 6.5
2015-Jul-01 16:33N 37°52' E 023°37'11 3.5
2015-Jul-01 13:18N 37°45' E 023°26'7 9.0
2015-Jul-01 12:33N 37°38' E 023°26'12 6.0
2015-Jul-01 10:33N 37°27' E 023°32'6 4.6
2015-Jul-01 09:13N 37°21' E 023°28'22 8.4
2015-Jul-01 06:33N 37°43' E 023°34'1211.9
2015-Jul-01 05:33N 37°54' E 023°39'2 2.2
2015-Jul-01 04:33N 37°56' E 023°41'1 0.1
2015-Jun-30 16:33N 37°55' E 023°40'1211.9
2015-Jun-30 15:33N 37°48' E 023°28'4 3.2
2015-Jun-30 14:26N 37°45' E 023°26'0 0.1
2015-Jun-30 13:05N 37°45' E 023°25'711.8
2015-Jun-30 12:30N 37°38' E 023°26'8 1.3
2015-Jun-30 06:32N 37°42' E 023°34'1212.0
2015-Jun-30 05:33N 37°53' E 023°39'3 3.3
2015-Jun-30 04:33N 37°56' E 023°41'0 0.0
2015-Jun-29 17:11N 37°56' E 023°41'4 6.7
2015-Jun-29 16:33N 37°54' E 023°37'1211.8
2015-Jun-29 15:33N 37°46' E 023°25'1 0.6
2015-Jun-29 13:23N 37°45' E 023°26'7 8.5
2015-Jun-29 12:33N 37°38' E 023°26'13 6.3
2015-Jun-29 10:33N 37°26' E 023°32'18 4.5
2015-Jun-29 06:33N 37°44' E 023°34'1212.1
2015-Jun-29 05:33N 37°55' E 023°40'2 1.6
2015-Jun-29 04:33N 37°56' E 023°41'0 0.0
2015-Jun-28 17:18N 37°56' E 023°41'5 7.0
2015-Jun-28 16:34N 37°53' E 023°36'1211.7
2015-Jun-28 15:33N 37°45' E 023°25'1 0.3
2015-Jun-28 13:28N 37°45' E 023°26'9 9.5
2015-Jun-28 12:32N 37°36' E 023°25'9 1.6
2015-Jun-28 06:33N 37°42' E 023°34'1211.8
2015-Jun-28 05:34N 37°54' E 023°39'3 3.0
2015-Jun-28 04:33N 37°56' E 023°41'0 0.0
2015-Jun-27 17:30N 37°56' E 023°41'5 5.3
2015-Jun-27 16:33N 37°53' E 023°36'1211.6
2015-Jun-27 15:33N 37°46' E 023°25'1 0.5
2015-Jun-27 13:22N 37°45' E 023°26'1111.7
2015-Jun-27 12:28N 37°34' E 023°26'12 5.3
2015-Jun-27 10:14N 37°23' E 023°29'21 5.7
2015-Jun-27 06:29N 37°44' E 023°34'1112.0
2015-Jun-27 05:33N 37°54' E 023°39'3 2.6
2015-Jun-27 04:33N 37°56' E 023°41'0 0.0
2015-Jun-26 17:05N 37°56' E 023°41'3 6.5
2015-Jun-26 16:33N 37°53' E 023°38'1211.8
2015-Jun-26 15:33N 37°47' E 023°26'2 0.9
2015-Jun-26 13:33N 37°45' E 023°26'5 4.9
2015-Jun-26 12:33N 37°40' E 023°26'17 6.9
2015-Jun-26 10:04N 37°23' E 023°29'10 3.7
2015-Jun-26 07:13N 37°33' E 023°32'1112.0
2015-Jun-26 06:19N 37°44' E 023°34'911.9
2015-Jun-26 05:34N 37°52' E 023°38'5 4.8
2015-Jun-26 04:33N 37°56' E 023°41'2 0.2
2015-Jun-25 16:33N 37°55' E 023°39'1211.8
2015-Jun-25 15:33N 37°47' E 023°28'9 3.0
2015-Jun-25 12:33N 37°38' E 023°26'13 6.3
2015-Jun-25 10:33N 37°27' E 023°32'17 4.2
2015-Jun-25 06:33N 37°43' E 023°33'  
Track history (hours):
 
Tides and Currents Weather Stations Pressure Air Temp Water Temp Dewpoint Dewpoint Depression Visibility Wind Speed Wind Dir Waves Ship Positions

Platitera Tonouranon

Last reported at 2015-Jul-05 06:33 UTC. Time now 2015-Jul-05 09:33 UTC.
Position N 37°43' E 023°35'.

Length 55 m; draft 3.8 m.

Type: Ship (hazmat cat A). MMSI: 237038200.

Date/timePositionNaut miles runAvg speedWind from/ knotsBaromVisibWave heightAir tempDewpointWater temp
2015-Jul-05 06:33N 37°43' E 023°35'1211.9
2015-Jul-05 05:34N 37°54' E 023°40'2 2.1
2015-Jul-05 04:33N 37°56' E 023°41'0 0.0
2015-Jul-04 17:15N 37°56' E 023°41'6 8.1
2015-Jul-04 16:33N 37°53' E 023°35'1111.4
2015-Jul-04 15:33N 37°45' E 023°25'0 0.2
2015-Jul-04 13:21N 37°45' E 023°26'1111.2
2015-Jul-04 12:22N 37°34' E 023°25'12 3.9
2015-Jul-04 09:12N 37°22' E 023°29'15 7.5
2015-Jul-04 07:10N 37°36' E 023°36'712.3
2015-Jul-04 06:34N 37°43' E 023°36'1211.6
2015-Jul-04 05:34N 37°54' E 023°39'2 2.3
2015-Jul-04 04:33N 37°56' E 023°41'0 0.0
2015-Jul-03 19:33N 37°56' E 023°41'0 0.5
2015-Jul-03 18:33N 37°56' E 023°41'1 1.0
2015-Jul-03 17:33N 37°55' E 023°40'1 1.2
2015-Jul-03 16:33N 37°56' E 023°41'2 1.7
2015-Jul-03 15:33N 37°55' E 023°39'1110.9
2015-Jul-03 14:33N 37°49' E 023°28'5 2.1
2015-Jul-03 12:19N 37°45' E 023°25'911.8
2015-Jul-03 11:33N 37°36' E 023°26'7 5.2
2015-Jul-03 10:18N 37°29' E 023°29'12 3.2
2015-Jul-03 06:32N 37°40' E 023°35'1211.8
2015-Jul-03 05:33N 37°52' E 023°38'5 5.2
2015-Jul-03 04:33N 37°56' E 023°41'0 0.0
2015-Jul-02 17:18N 37°56' E 023°41'6 7.8
2015-Jul-02 16:33N 37°53' E 023°35'1111.3
2015-Jul-02 15:33N 37°45' E 023°25'1 0.3
2015-Jul-02 13:12N 37°45' E 023°26'811.7
2015-Jul-02 12:29N 37°36' E 023°26'11 1.8
2015-Jul-02 06:30N 37°45' E 023°34'1111.9
2015-Jul-02 05:33N 37°55' E 023°40'1 1.4
2015-Jul-02 04:33N 37°56' E 023°41'0 0.0
2015-Jul-01 17:24N 37°56' E 023°41'6 6.5
2015-Jul-01 16:33N 37°52' E 023°37'11 3.5
2015-Jul-01 13:18N 37°45' E 023°26'7 9.0
2015-Jul-01 12:33N 37°38' E 023°26'12 6.0
2015-Jul-01 10:33N 37°27' E 023°32'6 4.6
2015-Jul-01 09:13N 37°21' E 023°28'22 8.4
2015-Jul-01 06:33N 37°43' E 023°34'1211.9
2015-Jul-01 05:33N 37°54' E 023°39'2 2.2
2015-Jul-01 04:33N 37°56' E 023°41'1 0.1
2015-Jun-30 16:33N 37°55' E 023°40'1211.9
2015-Jun-30 15:33N 37°48' E 023°28'4 3.2
2015-Jun-30 14:26N 37°45' E 023°26'0 0.1
2015-Jun-30 13:05N 37°45' E 023°25'711.8
2015-Jun-30 12:30N 37°38' E 023°26'8 1.3
2015-Jun-30 06:32N 37°42' E 023°34'1212.0
2015-Jun-30 05:33N 37°53' E 023°39'3 3.3
2015-Jun-30 04:33N 37°56' E 023°41'0 0.0
2015-Jun-29 17:11N 37°56' E 023°41'4 6.7
2015-Jun-29 16:33N 37°54' E 023°37'1211.8
2015-Jun-29 15:33N 37°46' E 023°25'1 0.6
2015-Jun-29 13:23N 37°45' E 023°26'7 8.5
2015-Jun-29 12:33N 37°38' E 023°26'13 6.3
2015-Jun-29 10:33N 37°26' E 023°32'18 4.5
2015-Jun-29 06:33N 37°44' E 023°34'1212.1
2015-Jun-29 05:33N 37°55' E 023°40'2 1.6
2015-Jun-29 04:33N 37°56' E 023°41'0 0.0
2015-Jun-28 17:18N 37°56' E 023°41'5 7.0
2015-Jun-28 16:34N 37°53' E 023°36'1211.7
2015-Jun-28 15:33N 37°45' E 023°25'1 0.3
2015-Jun-28 13:28N 37°45' E 023°26'9 9.5
2015-Jun-28 12:32N 37°36' E 023°25'9 1.6
2015-Jun-28 06:33N 37°42' E 023°34'1211.8
2015-Jun-28 05:34N 37°54' E 023°39'3 3.0
2015-Jun-28 04:33N 37°56' E 023°41'0 0.0
2015-Jun-27 17:30N 37°56' E 023°41'5 5.3
2015-Jun-27 16:33N 37°53' E 023°36'1211.6
2015-Jun-27 15:33N 37°46' E 023°25'1 0.5
2015-Jun-27 13:22N 37°45' E 023°26'1111.7
2015-Jun-27 12:28N 37°34' E 023°26'12 5.3
2015-Jun-27 10:14N 37°23' E 023°29'21 5.7
2015-Jun-27 06:29N 37°44' E 023°34'1112.0
2015-Jun-27 05:33N 37°54' E 023°39'3 2.6
2015-Jun-27 04:33N 37°56' E 023°41'0 0.0
2015-Jun-26 17:05N 37°56' E 023°41'3 6.5
2015-Jun-26 16:33N 37°53' E 023°38'1211.8
2015-Jun-26 15:33N 37°47' E 023°26'2 0.9
2015-Jun-26 13:33N 37°45' E 023°26'5 4.9
2015-Jun-26 12:33N 37°40' E 023°26'17 6.9
2015-Jun-26 10:04N 37°23' E 023°29'10 3.7
2015-Jun-26 07:13N 37°33' E 023°32'1112.0
2015-Jun-26 06:19N 37°44' E 023°34'911.9
2015-Jun-26 05:34N 37°52' E 023°38'5 4.8
2015-Jun-26 04:33N 37°56' E 023°41'2 0.2
2015-Jun-25 16:33N 37°55' E 023°39'1211.8
2015-Jun-25 15:33N 37°47' E 023°28'9 3.0
2015-Jun-25 12:33N 37°38' E 023°26'13 6.3
2015-Jun-25 10:33N 37°27' E 023°32'17 4.2
2015-Jun-25 06:33N 37°43' E 023°33'  

Dump ship's entire track history